Nearby METAR Reports

 

NZAA - Auckland Intl Ar, New Zealand
Distance from station: SW 18km
Updated: 23/04/2019 02:00
Light rain, Mostly cloudy
Light rain, Mostly cloudy
 Wind from N
Wind: N 7 km/h
Temperature: 13°C
Dew Point: 12°C
Humidity: 94%
Barometer: 1019 hPa
Summary: Light rain
Clouds: Mostly cloudy
Visibility: 10 km
Cloud details: Partly cloudy 1981 m
Mostly cloudy 2438 m
2019/04/22 14:00 NZAA 221400Z AUTO 01004KT 9999 -RA SCT065/// BKN080/// 13/12 Q1019 TEMPO 6000 SHRA FEW020TCU
NZWN - Wellington Intl, New Zealand
Distance from station: S 493km
Updated: 23/04/2019 02:00
Light rain, Mostly cloudy
Light rain, Mostly cloudy
 Wind from SSE
Wind: SSE 24 km/h, Gust: 44 km/h
Temperature: 15°C
Dew Point: 14°C
Humidity: 94%
Barometer: 1022 hPa
Summary: Light rain
Clouds: Mostly cloudy
Visibility: 6 km
Cloud details: Mostly cloudy 122 m
Mostly cloudy 701 m
Mostly cloudy 2134 m
2019/04/22 14:00 NZWN 221400Z AUTO 16013G24KT 6000 -RA BKN004/// BKN023/// BKN070/// 15/14 Q1022 BECMG 9999 TEMPO 6000 RADZ
 
NZCH - Christchurch Int, New Zealand
Distance from station: SSW 759km
Updated: 23/04/2019 02:00
Overcast
Overcast
 Wind from WNW
Wind: WNW 2 km/h
Temperature: 9°C
Dew Point: 9°C
Humidity: 100%
Barometer: 1026 hPa
Clouds: Overcast
Visibility: 10 km
Cloud details: Overcast 701 m
2019/04/22 14:00 NZCH 221400Z AUTO 30001KT 9999 OVC023/// 09/09 Q1026 NOSIG
YSNF - Norfolk Island A, Australia
Distance from station: NW 1091km
Updated: 23/04/2019 02:00
Partly cloudy
Partly cloudy
 Wind from SE
Wind: SE 20 km/h
Temperature: 20°C
Dew Point: 14°C
Humidity: 69%
Barometer: 1022 hPa
Clouds: Partly cloudy
Visibility: 10 km
Cloud details: Partly cloudy 640 m
2019/04/22 14:00 YSNF 221400Z AUTO 14011KT 9999 // SCT021 20/14 Q1022